LVBLE SAZM-SASJ
Flight info
| Callsign | LVBLE |
|---|---|
| Flight time | 2h 57m |
| Altitude | 40000 |
| Route | ESURO1C ESURO DCT DIL UW15 LYE/N0429F390 UW15 KOSNO/N0427F410 UW15 SIMES/N0428F400 UW15 CBA UW5 TUC DCT ALGAR ALGAR2U |
| Aircraft | LJ35/M-SGHRWXY/SB1 |
Departure
| Time | 2026-05-06 11:05 |
|---|---|
| Airport | Ástor Piazzola International Airport (SAZM) |
Arrival
| Time | 2026-05-06 14:03 |
|---|---|
| Airport | Gobernador Horacio Guzman International Airport (SASJ) |
| Time | Latitude | Longitude | Altitude | Speed | Heading |
|---|---|---|---|---|---|
| 2026-05-06 10:44 | -37.93419 | -57.57969 | 48 ft | 0 kts | 301° |
| 2026-05-06 11:00 | -37.93409 | -57.57990 | 48 ft | 8 kts | 301° |
| 2026-05-06 11:00 | -37.93358 | -57.58025 | 48 ft | 8 kts | 1° |
| 2026-05-06 11:00 | -37.93291 | -57.58027 | 48 ft | 9 kts | 345° |
| 2026-05-06 11:01 | -37.93226 | -57.58036 | 48 ft | 9 kts | 32° |
| 2026-05-06 11:01 | -37.93162 | -57.57983 | 48 ft | 12 kts | 33° |
| 2026-05-06 11:01 | -37.93106 | -57.57968 | 48 ft | 9 kts | 338° |
| 2026-05-06 11:01 | -37.93053 | -57.58054 | 48 ft | 16 kts | 301° |
| 2026-05-06 11:02 | -37.92986 | -57.58185 | 46 ft | 20 kts | 302° |
| 2026-05-06 11:02 | -37.92937 | -57.58292 | 46 ft | 9 kts | 298° |
| 2026-05-06 11:02 | -37.92938 | -57.58339 | 46 ft | 5 kts | 272° |
| 2026-05-06 11:02 | -37.92913 | -57.58388 | 46 ft | 9 kts | 345° |
| 2026-05-06 11:03 | -37.92890 | -57.58340 | 46 ft | 7 kts | 143° |
| 2026-05-06 11:03 | -37.92919 | -57.58310 | 46 ft | 2 kts | 136° |
| 2026-05-06 11:03 | -37.92921 | -57.58308 | 46 ft | 0 kts | 137° |
| 2026-05-06 11:03 | -37.92924 | -57.58305 | 46 ft | 4 kts | 136° |
| 2026-05-06 11:04 | -37.92928 | -57.58298 | 46 ft | 0 kts | 119° |
| 2026-05-06 11:04 | -37.92928 | -57.58297 | 46 ft | 3 kts | 119° |
| 2026-05-06 11:04 | -37.93132 | -57.57893 | 48 ft | 106 kts | 123° |
| 2026-05-06 11:05 | -37.93648 | -57.56850 | 245 ft | 159 kts | 121° |
| 2026-05-06 11:05 | -37.94268 | -57.55583 | 1062 ft | 184 kts | 124° |
| 2026-05-06 11:05 | -37.94967 | -57.54096 | 1793 ft | 209 kts | 125° |
| 2026-05-06 11:05 | -37.95712 | -57.52502 | 2815 ft | 217 kts | 124° |
| 2026-05-06 11:06 | -37.96511 | -57.50848 | 3805 ft | 226 kts | 126° |
| 2026-05-06 11:06 | -37.97387 | -57.49235 | 5120 ft | 203 kts | 131° |
| 2026-05-06 11:06 | -37.98271 | -57.47776 | 6156 ft | 214 kts | 133° |
| 2026-05-06 11:06 | -37.99469 | -57.46626 | 6974 ft | 220 kts | 160° |
| 2026-05-06 11:07 | -38.00991 | -57.46124 | 7796 ft | 239 kts | 184° |
| 2026-05-06 11:07 | -38.02763 | -57.46144 | 8692 ft | 270 kts | 188° |
| 2026-05-06 11:07 | -38.04745 | -57.46176 | 9622 ft | 300 kts | 188° |
| 2026-05-06 11:07 | -38.06773 | -57.46171 | 10480 ft | 280 kts | 192° |
| 2026-05-06 11:08 | -38.08571 | -57.46600 | 11293 ft | 249 kts | 208° |
| 2026-05-06 11:08 | -38.10073 | -57.47438 | 12105 ft | 230 kts | 221° |
| 2026-05-06 11:08 | -38.10988 | -57.48229 | 12671 ft | 242 kts | 227° |
| 2026-05-06 11:08 | -38.12575 | -57.50396 | 13834 ft | 265 kts | 242° |
| 2026-05-06 11:09 | -38.13198 | -57.51797 | 14385 ft | 276 kts | 250° |
| 2026-05-06 11:09 | -38.13784 | -57.54143 | 15190 ft | 291 kts | 261° |
| 2026-05-06 11:09 | -38.13890 | -57.56774 | 16036 ft | 307 kts | 275° |
| 2026-05-06 11:09 | -38.13375 | -57.59474 | 16900 ft | 324 kts | 288° |
| 2026-05-06 11:10 | -38.12188 | -57.62013 | 17787 ft | 345 kts | 303° |
| 2026-05-06 11:10 | -38.10458 | -57.64231 | 18640 ft | 359 kts | 310° |
| 2026-05-06 11:10 | -38.08611 | -57.66435 | 19438 ft | 367 kts | 310° |
| 2026-05-06 11:10 | -38.06741 | -57.68680 | 20235 ft | 373 kts | 310° |
| 2026-05-06 11:11 | -38.04878 | -57.70953 | 21052 ft | 378 kts | 310° |
| 2026-05-06 11:11 | -38.02976 | -57.73272 | 21893 ft | 381 kts | 310° |
| 2026-05-06 11:11 | -38.01049 | -57.75602 | 22757 ft | 383 kts | 310° |
| 2026-05-06 11:11 | -37.99114 | -57.77939 | 23633 ft | 385 kts | 310° |
| 2026-05-06 11:12 | -37.97177 | -57.80285 | 24377 ft | 385 kts | 310° |
| 2026-05-06 11:12 | -37.95238 | -57.82633 | 25142 ft | 384 kts | 310° |
| 2026-05-06 11:12 | -37.93304 | -57.84967 | 25921 ft | 384 kts | 310° |
| 2026-05-06 11:12 | -37.91371 | -57.87301 | 26723 ft | 383 kts | 310° |
| 2026-05-06 11:13 | -37.89447 | -57.89621 | 27539 ft | 381 kts | 309° |
| 2026-05-06 11:13 | -37.87534 | -57.91928 | 28389 ft | 379 kts | 309° |
| 2026-05-06 11:13 | -37.85652 | -57.94196 | 29249 ft | 376 kts | 309° |
| 2026-05-06 11:13 | -37.83743 | -57.96492 | 30142 ft | 372 kts | 309° |
| 2026-05-06 11:14 | -37.81873 | -57.98740 | 30902 ft | 369 kts | 309° |
| 2026-05-06 11:14 | -37.80026 | -58.00942 | 31385 ft | 372 kts | 309° |
| 2026-05-06 11:14 | -37.78149 | -58.03212 | 31876 ft | 374 kts | 308° |
| 2026-05-06 11:14 | -37.76269 | -58.05486 | 32380 ft | 375 kts | 308° |
| 2026-05-06 11:15 | -37.74365 | -58.07765 | 32897 ft | 376 kts | 309° |
| 2026-05-06 11:15 | -37.72466 | -58.10032 | 33418 ft | 376 kts | 308° |
| 2026-05-06 11:15 | -37.70583 | -58.12308 | 33947 ft | 373 kts | 306° |
| 2026-05-06 11:15 | -37.69011 | -58.14849 | 34420 ft | 362 kts | 295° |
| 2026-05-06 11:16 | -37.67812 | -58.17609 | 34889 ft | 358 kts | 292° |
| 2026-05-06 11:16 | -37.66647 | -58.20378 | 35370 ft | 356 kts | 292° |
| 2026-05-06 11:16 | -37.65478 | -58.23124 | 35858 ft | 354 kts | 292° |
| 2026-05-06 11:16 | -37.64317 | -58.25855 | 36351 ft | 351 kts | 292° |
| 2026-05-06 11:17 | -37.63182 | -58.28535 | 36845 ft | 348 kts | 291° |
| 2026-05-06 11:17 | -37.62029 | -58.31251 | 37370 ft | 345 kts | 291° |
| 2026-05-06 11:17 | -37.60897 | -58.33915 | 37892 ft | 342 kts | 291° |
| 2026-05-06 11:17 | -37.59795 | -58.36503 | 38414 ft | 338 kts | 291° |
| 2026-05-06 11:18 | -37.58687 | -58.39105 | 38904 ft | 334 kts | 291° |
| 2026-05-06 11:18 | -37.57595 | -58.41669 | 39346 ft | 330 kts | 291° |
| 2026-05-06 11:18 | -37.56513 | -58.44205 | 39800 ft | 326 kts | 291° |
| 2026-05-06 11:18 | -37.55441 | -58.46722 | 39991 ft | 330 kts | 291° |
| 2026-05-06 11:19 | -37.54341 | -58.49309 | 40001 ft | 338 kts | 291° |
| 2026-05-06 11:19 | -37.52055 | -58.54650 | 40003 ft | 353 kts | 292° |
| 2026-05-06 11:20 | -37.49694 | -58.60161 | 40011 ft | 365 kts | 292° |
| 2026-05-06 11:20 | -37.47245 | -58.65869 | 40012 ft | 374 kts | 292° |
| 2026-05-06 11:21 | -37.44749 | -58.71670 | 40012 ft | 379 kts | 292° |
| 2026-05-06 11:21 | -37.42235 | -58.77508 | 40007 ft | 380 kts | 292° |
| 2026-05-06 11:22 | -37.39710 | -58.83361 | 40010 ft | 381 kts | 292° |
| 2026-05-06 11:22 | -37.37195 | -58.89178 | 40008 ft | 380 kts | 293° |
| 2026-05-06 11:23 | -37.34668 | -58.95016 | 39995 ft | 380 kts | 293° |
| 2026-05-06 11:23 | -37.32135 | -59.00853 | 39988 ft | 380 kts | 293° |
| 2026-05-06 11:24 | -37.29601 | -59.06688 | 39991 ft | 380 kts | 293° |
| 2026-05-06 11:24 | -37.27066 | -59.12509 | 39988 ft | 380 kts | 293° |
| 2026-05-06 11:25 | -37.24526 | -59.18335 | 39983 ft | 380 kts | 293° |
| 2026-05-06 11:25 | -37.21773 | -59.24012 | 39979 ft | 388 kts | 303° |
| 2026-05-06 11:26 | -37.18180 | -59.29108 | 39975 ft | 389 kts | 304° |
| 2026-05-06 11:26 | -37.14611 | -59.34203 | 39973 ft | 389 kts | 304° |
| 2026-05-06 11:27 | -37.11047 | -59.39256 | 39964 ft | 389 kts | 304° |
| 2026-05-06 11:27 | -37.07459 | -59.44350 | 39962 ft | 389 kts | 304° |
| 2026-05-06 11:28 | -37.03873 | -59.49425 | 39958 ft | 389 kts | 304° |
| 2026-05-06 11:28 | -37.00283 | -59.54501 | 39956 ft | 389 kts | 304° |
| 2026-05-06 11:29 | -36.96700 | -59.59559 | 39954 ft | 388 kts | 304° |
| 2026-05-06 11:29 | -36.93109 | -59.64621 | 39950 ft | 388 kts | 304° |
| 2026-05-06 11:30 | -36.89547 | -59.69634 | 39950 ft | 388 kts | 304° |
| 2026-05-06 11:30 | -36.85962 | -59.74671 | 39943 ft | 388 kts | 304° |
| 2026-05-06 11:31 | -36.82375 | -59.79703 | 39941 ft | 387 kts | 304° |
| 2026-05-06 11:31 | -36.78813 | -59.84694 | 39935 ft | 387 kts | 305° |
| 2026-05-06 11:32 | -36.75237 | -59.89695 | 39937 ft | 386 kts | 305° |
| 2026-05-06 11:32 | -36.71649 | -59.94707 | 39927 ft | 386 kts | 305° |
| 2026-05-06 11:33 | -36.68091 | -59.99668 | 39925 ft | 386 kts | 305° |
| 2026-05-06 11:33 | -36.64517 | -60.04646 | 39926 ft | 385 kts | 305° |
| 2026-05-06 11:34 | -36.60939 | -60.09619 | 39919 ft | 385 kts | 305° |
| 2026-05-06 11:34 | -36.57361 | -60.14587 | 39914 ft | 385 kts | 305° |
| 2026-05-06 11:35 | -36.53780 | -60.19551 | 39918 ft | 385 kts | 305° |
| 2026-05-06 11:35 | -36.50205 | -60.24509 | 39908 ft | 385 kts | 305° |
| 2026-05-06 11:36 | -36.46671 | -60.29501 | 39908 ft | 384 kts | 305° |
| 2026-05-06 11:36 | -36.43140 | -60.34441 | 39902 ft | 384 kts | 305° |
| 2026-05-06 11:37 | -36.39599 | -60.39403 | 39901 ft | 384 kts | 305° |
| 2026-05-06 11:37 | -36.36040 | -60.44376 | 39900 ft | 385 kts | 305° |
| 2026-05-06 11:38 | -36.32480 | -60.49347 | 39895 ft | 386 kts | 305° |
| 2026-05-06 11:38 | -36.28911 | -60.54322 | 39898 ft | 386 kts | 305° |
| 2026-05-06 11:39 | -36.25338 | -60.59293 | 39890 ft | 386 kts | 305° |
| 2026-05-06 11:39 | -36.21775 | -60.64246 | 39892 ft | 385 kts | 305° |
| 2026-05-06 11:40 | -36.18223 | -60.69174 | 39887 ft | 385 kts | 305° |
| 2026-05-06 11:40 | -36.14650 | -60.74125 | 39886 ft | 384 kts | 305° |
| 2026-05-06 11:41 | -36.11083 | -60.79032 | 39886 ft | 384 kts | 306° |
| 2026-05-06 11:41 | -36.07426 | -60.83854 | 39879 ft | 384 kts | 306° |
| 2026-05-06 11:42 | -36.03802 | -60.88715 | 39881 ft | 384 kts | 306° |
| 2026-05-06 11:42 | -36.00190 | -60.93517 | 39878 ft | 384 kts | 306° |
| 2026-05-06 11:43 | -35.96561 | -60.98348 | 39873 ft | 383 kts | 306° |
| 2026-05-06 11:43 | -35.92933 | -61.03166 | 39874 ft | 383 kts | 306° |
| 2026-05-06 11:44 | -35.87491 | -61.10382 | 39870 ft | 382 kts | 306° |
| 2026-05-06 11:44 | -35.83870 | -61.15174 | 39867 ft | 381 kts | 306° |
| 2026-05-06 11:45 | -35.80253 | -61.19956 | 39868 ft | 381 kts | 306° |
| 2026-05-06 11:45 | -35.76641 | -61.24722 | 39864 ft | 380 kts | 306° |
| 2026-05-06 11:46 | -35.73027 | -61.29485 | 39865 ft | 380 kts | 306° |
| 2026-05-06 11:46 | -35.69421 | -61.34229 | 39866 ft | 380 kts | 306° |
| 2026-05-06 11:47 | -35.65809 | -61.38976 | 39859 ft | 379 kts | 306° |
| 2026-05-06 11:47 | -35.62221 | -61.43685 | 39857 ft | 379 kts | 306° |
| 2026-05-06 11:48 | -35.58617 | -61.48409 | 39855 ft | 379 kts | 307° |
| 2026-05-06 11:48 | -35.55003 | -61.53137 | 39865 ft | 379 kts | 307° |
| 2026-05-06 11:49 | -35.51387 | -61.57862 | 39855 ft | 378 kts | 307° |
| 2026-05-06 11:49 | -35.47786 | -61.62561 | 39857 ft | 378 kts | 307° |
| 2026-05-06 11:50 | -35.44202 | -61.67231 | 39847 ft | 377 kts | 307° |
| 2026-05-06 11:50 | -35.40581 | -61.71942 | 39849 ft | 377 kts | 307° |
| 2026-05-06 11:51 | -35.37020 | -61.76599 | 39843 ft | 376 kts | 306° |
| 2026-05-06 11:51 | -35.33509 | -61.81347 | 39850 ft | 375 kts | 306° |
| 2026-05-06 11:52 | -35.29969 | -61.86050 | 39838 ft | 375 kts | 306° |
| 2026-05-06 11:52 | -35.26439 | -61.90765 | 39847 ft | 375 kts | 306° |
| 2026-05-06 11:53 | -35.22938 | -61.95419 | 39845 ft | 370 kts | 306° |
| 2026-05-06 11:53 | -35.19508 | -61.99979 | 39837 ft | 360 kts | 306° |
| 2026-05-06 11:54 | -35.16136 | -62.04458 | 39841 ft | 356 kts | 306° |
| 2026-05-06 11:54 | -35.12789 | -62.08896 | 39835 ft | 354 kts | 306° |
| 2026-05-06 11:55 | -35.09463 | -62.13302 | 39834 ft | 356 kts | 306° |
| 2026-05-06 11:55 | -35.06099 | -62.17750 | 39836 ft | 356 kts | 306° |
| 2026-05-06 11:56 | -35.02743 | -62.22182 | 39834 ft | 357 kts | 306° |
| 2026-05-06 11:56 | -34.99917 | -62.25911 | 39826 ft | 357 kts | 306° |
| 2026-05-06 11:57 | -34.96000 | -62.31071 | 39831 ft | 357 kts | 306° |
| 2026-05-06 11:57 | -34.93173 | -62.34744 | 39825 ft | 357 kts | 307° |
| 2026-05-06 11:58 | -34.89762 | -62.39176 | 39826 ft | 357 kts | 307° |
| 2026-05-06 11:58 | -34.86365 | -62.43590 | 39822 ft | 357 kts | 307° |
| 2026-05-06 11:59 | -34.82955 | -62.48010 | 39820 ft | 357 kts | 307° |
| 2026-05-06 11:59 | -34.79572 | -62.52393 | 39820 ft | 357 kts | 307° |
| 2026-05-06 12:00 | -34.76167 | -62.56798 | 39819 ft | 357 kts | 307° |
| 2026-05-06 12:00 | -34.72758 | -62.61203 | 39823 ft | 357 kts | 307° |
| 2026-05-06 12:01 | -34.69346 | -62.65607 | 39824 ft | 357 kts | 307° |
| 2026-05-06 12:01 | -34.65937 | -62.70001 | 39822 ft | 357 kts | 307° |
| 2026-05-06 12:02 | -34.62526 | -62.74392 | 39817 ft | 358 kts | 307° |
| 2026-05-06 12:02 | -34.59127 | -62.78762 | 39817 ft | 358 kts | 307° |
| 2026-05-06 12:03 | -34.55704 | -62.83157 | 39817 ft | 358 kts | 307° |
| 2026-05-06 12:03 | -34.52279 | -62.87549 | 39817 ft | 358 kts | 307° |
| 2026-05-06 12:04 | -34.48852 | -62.91938 | 39818 ft | 358 kts | 307° |
| 2026-05-06 12:04 | -34.45449 | -62.96290 | 39817 ft | 358 kts | 307° |
| 2026-05-06 12:05 | -34.42026 | -63.00663 | 39813 ft | 358 kts | 307° |
| 2026-05-06 12:05 | -34.38600 | -63.05034 | 39811 ft | 357 kts | 307° |
| 2026-05-06 12:06 | -34.35167 | -63.09408 | 39818 ft | 357 kts | 307° |
| 2026-05-06 12:06 | -34.31757 | -63.13747 | 39812 ft | 357 kts | 307° |
| 2026-05-06 12:07 | -34.28328 | -63.18105 | 39809 ft | 357 kts | 307° |
| 2026-05-06 12:07 | -34.24898 | -63.22459 | 39813 ft | 357 kts | 307° |
| 2026-05-06 12:08 | -34.21471 | -63.26803 | 39808 ft | 357 kts | 307° |
| 2026-05-06 12:08 | -34.18043 | -63.31145 | 39805 ft | 357 kts | 307° |
| 2026-05-06 12:09 | -34.14164 | -63.34993 | 39819 ft | 373 kts | 323° |
| 2026-05-06 12:09 | -34.11726 | -63.36129 | 39820 ft | 390 kts | 334° |
| 2026-05-06 12:09 | -34.08989 | -63.36621 | 39824 ft | 404 kts | 342° |
| 2026-05-06 12:10 | -34.03367 | -63.37146 | 39823 ft | 404 kts | 343° |
| 2026-05-06 12:10 | -33.97762 | -63.37718 | 39825 ft | 404 kts | 342° |
| 2026-05-06 12:11 | -33.92143 | -63.38270 | 39820 ft | 405 kts | 343° |
| 2026-05-06 12:11 | -33.86564 | -63.38826 | 39818 ft | 405 kts | 343° |
| 2026-05-06 12:12 | -33.80950 | -63.39381 | 39817 ft | 405 kts | 342° |
| 2026-05-06 12:12 | -33.75327 | -63.39938 | 39816 ft | 405 kts | 342° |
| 2026-05-06 12:13 | -33.69703 | -63.40494 | 39815 ft | 405 kts | 342° |
| 2026-05-06 12:13 | -33.64079 | -63.41049 | 39814 ft | 405 kts | 342° |
| 2026-05-06 12:14 | -33.58457 | -63.41603 | 39814 ft | 406 kts | 342° |
| 2026-05-06 12:14 | -33.52847 | -63.42155 | 39815 ft | 406 kts | 342° |
| 2026-05-06 12:15 | -33.47213 | -63.42709 | 39815 ft | 406 kts | 342° |
| 2026-05-06 12:15 | -33.41573 | -63.43263 | 39817 ft | 406 kts | 342° |
| 2026-05-06 12:16 | -33.35962 | -63.43813 | 39815 ft | 407 kts | 343° |
| 2026-05-06 12:16 | -33.30313 | -63.44366 | 39812 ft | 407 kts | 343° |
| 2026-05-06 12:17 | -33.24664 | -63.44918 | 39817 ft | 407 kts | 342° |
| 2026-05-06 12:17 | -33.19027 | -63.45469 | 39819 ft | 406 kts | 342° |
| 2026-05-06 12:18 | -33.13384 | -63.46019 | 39817 ft | 406 kts | 342° |
| 2026-05-06 12:18 | -33.07744 | -63.46569 | 39821 ft | 406 kts | 342° |
| 2026-05-06 12:19 | -33.02114 | -63.47116 | 39822 ft | 405 kts | 342° |
| 2026-05-06 12:19 | -32.96516 | -63.47660 | 39819 ft | 405 kts | 342° |
| 2026-05-06 12:20 | -32.90905 | -63.48205 | 39821 ft | 405 kts | 342° |
| 2026-05-06 12:20 | -32.85290 | -63.48749 | 39819 ft | 404 kts | 342° |
| 2026-05-06 12:21 | -32.79677 | -63.49292 | 39820 ft | 404 kts | 342° |
| 2026-05-06 12:21 | -32.74073 | -63.49834 | 39827 ft | 404 kts | 342° |
| 2026-05-06 12:22 | -32.68471 | -63.50375 | 39820 ft | 403 kts | 342° |
| 2026-05-06 12:22 | -32.62865 | -63.50916 | 39816 ft | 403 kts | 342° |
| 2026-05-06 12:23 | -32.57310 | -63.51451 | 39820 ft | 403 kts | 342° |
| 2026-05-06 12:23 | -32.51711 | -63.51989 | 39821 ft | 403 kts | 342° |
| 2026-05-06 12:24 | -32.46154 | -63.52523 | 39826 ft | 402 kts | 342° |
| 2026-05-06 12:24 | -32.40556 | -63.53060 | 39825 ft | 402 kts | 342° |
| 2026-05-06 12:25 | -32.34971 | -63.53596 | 39825 ft | 402 kts | 342° |
| 2026-05-06 12:25 | -32.29398 | -63.54130 | 39824 ft | 402 kts | 342° |
| 2026-05-06 12:26 | -32.23851 | -63.54661 | 39822 ft | 402 kts | 342° |
| 2026-05-06 12:26 | -32.18271 | -63.55194 | 39827 ft | 402 kts | 342° |
| 2026-05-06 12:27 | -32.12692 | -63.55726 | 39825 ft | 402 kts | 342° |
| 2026-05-06 12:27 | -32.07177 | -63.56431 | 39826 ft | 388 kts | 334° |
| 2026-05-06 12:28 | -32.04663 | -63.57421 | 39829 ft | 374 kts | 325° |
| 2026-05-06 12:28 | -32.02412 | -63.58868 | 39828 ft | 363 kts | 317° |
| 2026-05-06 12:28 | -31.98379 | -63.62379 | 39830 ft | 360 kts | 315° |
| 2026-05-06 12:29 | -31.94346 | -63.65881 | 39832 ft | 360 kts | 315° |
| 2026-05-06 12:29 | -31.90343 | -63.69373 | 39831 ft | 360 kts | 315° |
| 2026-05-06 12:30 | -31.86303 | -63.72884 | 39825 ft | 360 kts | 315° |
| 2026-05-06 12:30 | -31.82273 | -63.76388 | 39827 ft | 360 kts | 315° |
| 2026-05-06 12:31 | -31.78243 | -63.79885 | 39830 ft | 360 kts | 315° |
| 2026-05-06 12:31 | -31.74211 | -63.83383 | 39831 ft | 360 kts | 315° |
| 2026-05-06 12:32 | -31.70208 | -63.86854 | 39836 ft | 359 kts | 315° |
| 2026-05-06 12:32 | -31.66177 | -63.90345 | 39832 ft | 359 kts | 315° |
| 2026-05-06 12:33 | -31.62152 | -63.93826 | 39836 ft | 359 kts | 315° |
| 2026-05-06 12:33 | -31.58153 | -63.97281 | 39836 ft | 359 kts | 315° |
| 2026-05-06 12:34 | -31.54131 | -64.00753 | 39839 ft | 358 kts | 315° |
| 2026-05-06 12:34 | -31.50110 | -64.04220 | 39844 ft | 358 kts | 315° |
| 2026-05-06 12:35 | -31.46087 | -64.07685 | 39844 ft | 358 kts | 315° |
| 2026-05-06 12:35 | -31.42074 | -64.11136 | 39846 ft | 358 kts | 315° |
| 2026-05-06 12:36 | -31.38062 | -64.14584 | 39846 ft | 358 kts | 315° |
| 2026-05-06 12:36 | -31.34049 | -64.18029 | 39845 ft | 357 kts | 315° |
| 2026-05-06 12:37 | -31.29561 | -64.20714 | 39851 ft | 383 kts | 333° |
| 2026-05-06 12:37 | -31.24245 | -64.21863 | 39857 ft | 389 kts | 337° |
| 2026-05-06 12:38 | -31.18920 | -64.22992 | 39851 ft | 389 kts | 337° |
| 2026-05-06 12:38 | -31.13591 | -64.24117 | 39847 ft | 389 kts | 337° |
| 2026-05-06 12:39 | -31.08261 | -64.25241 | 39847 ft | 388 kts | 337° |
| 2026-05-06 12:39 | -31.02976 | -64.26353 | 39850 ft | 388 kts | 337° |
| 2026-05-06 12:40 | -30.97668 | -64.27470 | 39856 ft | 388 kts | 337° |
| 2026-05-06 12:40 | -30.92361 | -64.28585 | 39851 ft | 387 kts | 337° |
| 2026-05-06 12:41 | -30.87060 | -64.29699 | 39856 ft | 386 kts | 337° |
| 2026-05-06 12:41 | -30.81764 | -64.30809 | 39856 ft | 387 kts | 337° |
| 2026-05-06 12:42 | -30.76508 | -64.31910 | 39858 ft | 387 kts | 337° |
| 2026-05-06 12:42 | -30.71197 | -64.33021 | 39861 ft | 386 kts | 337° |
| 2026-05-06 12:43 | -30.66789 | -64.33943 | 39858 ft | 386 kts | 337° |
| 2026-05-06 12:43 | -30.61486 | -64.35049 | 39854 ft | 387 kts | 337° |
| 2026-05-06 12:44 | -30.56174 | -64.36158 | 39848 ft | 388 kts | 337° |
| 2026-05-06 12:44 | -30.50890 | -64.37258 | 39845 ft | 388 kts | 337° |
| 2026-05-06 12:45 | -30.45564 | -64.38366 | 39848 ft | 388 kts | 337° |
| 2026-05-06 12:46 | -30.37586 | -64.40038 | 39841 ft | 388 kts | 336° |
| 2026-05-06 12:46 | -30.32280 | -64.41188 | 39840 ft | 388 kts | 337° |
| 2026-05-06 12:47 | -30.26961 | -64.42319 | 39837 ft | 388 kts | 337° |
| 2026-05-06 12:47 | -30.21648 | -64.43458 | 39835 ft | 388 kts | 337° |
| 2026-05-06 12:48 | -30.16359 | -64.44586 | 39830 ft | 388 kts | 337° |
| 2026-05-06 12:48 | -30.11036 | -64.45722 | 39825 ft | 389 kts | 337° |
| 2026-05-06 12:49 | -30.05719 | -64.46855 | 39824 ft | 389 kts | 337° |
| 2026-05-06 12:49 | -30.00394 | -64.47988 | 39824 ft | 389 kts | 337° |
| 2026-05-06 12:50 | -29.95075 | -64.49119 | 39818 ft | 389 kts | 337° |
| 2026-05-06 12:50 | -29.89740 | -64.50129 | 39812 ft | 389 kts | 338° |
| 2026-05-06 12:51 | -29.84396 | -64.51173 | 39809 ft | 390 kts | 339° |
| 2026-05-06 12:51 | -29.79030 | -64.52174 | 39809 ft | 390 kts | 338° |
| 2026-05-06 12:52 | -29.73676 | -64.53196 | 39815 ft | 390 kts | 339° |
| 2026-05-06 12:52 | -29.68304 | -64.54208 | 39809 ft | 390 kts | 339° |
| 2026-05-06 12:53 | -29.62972 | -64.55218 | 39809 ft | 390 kts | 339° |
| 2026-05-06 12:53 | -29.57634 | -64.56309 | 39809 ft | 388 kts | 337° |
| 2026-05-06 12:54 | -29.52304 | -64.57452 | 39807 ft | 389 kts | 338° |
| 2026-05-06 12:54 | -29.46994 | -64.58619 | 39809 ft | 389 kts | 337° |
| 2026-05-06 12:55 | -29.41701 | -64.59773 | 39808 ft | 389 kts | 338° |
| 2026-05-06 12:55 | -29.36366 | -64.60936 | 39808 ft | 390 kts | 338° |
| 2026-05-06 12:56 | -29.31020 | -64.62101 | 39811 ft | 390 kts | 338° |
| 2026-05-06 12:56 | -29.25680 | -64.63262 | 39810 ft | 391 kts | 338° |
| 2026-05-06 12:57 | -29.20368 | -64.64417 | 39811 ft | 391 kts | 338° |
| 2026-05-06 12:57 | -29.15011 | -64.65580 | 39811 ft | 391 kts | 338° |
| 2026-05-06 12:58 | -29.09652 | -64.66742 | 39812 ft | 392 kts | 338° |
| 2026-05-06 12:58 | -29.04291 | -64.67904 | 39814 ft | 392 kts | 338° |
| 2026-05-06 12:59 | -28.98919 | -64.69066 | 39813 ft | 393 kts | 338° |
| 2026-05-06 12:59 | -28.93553 | -64.70226 | 39811 ft | 393 kts | 338° |
| 2026-05-06 13:00 | -28.88171 | -64.71389 | 39812 ft | 394 kts | 338° |
| 2026-05-06 13:00 | -28.82816 | -64.72544 | 39811 ft | 394 kts | 338° |
| 2026-05-06 13:01 | -28.77429 | -64.73705 | 39824 ft | 393 kts | 338° |
| 2026-05-06 13:01 | -28.72042 | -64.74865 | 39818 ft | 393 kts | 338° |
| 2026-05-06 13:02 | -28.66654 | -64.76024 | 39817 ft | 394 kts | 338° |
| 2026-05-06 13:02 | -28.61237 | -64.77117 | 39817 ft | 397 kts | 340° |
| 2026-05-06 13:03 | -28.55791 | -64.78154 | 39816 ft | 397 kts | 339° |
| 2026-05-06 13:03 | -28.50325 | -64.79172 | 39816 ft | 397 kts | 340° |
| 2026-05-06 13:04 | -28.44899 | -64.80185 | 39818 ft | 397 kts | 339° |
| 2026-05-06 13:04 | -28.39441 | -64.81204 | 39819 ft | 398 kts | 339° |
| 2026-05-06 13:05 | -28.33980 | -64.82221 | 39819 ft | 398 kts | 339° |
| 2026-05-06 13:05 | -28.28537 | -64.83234 | 39821 ft | 398 kts | 340° |
| 2026-05-06 13:06 | -28.23051 | -64.84255 | 39821 ft | 399 kts | 340° |
| 2026-05-06 13:06 | -28.17556 | -64.85275 | 39822 ft | 399 kts | 340° |
| 2026-05-06 13:07 | -28.12068 | -64.86294 | 39819 ft | 400 kts | 340° |
| 2026-05-06 13:07 | -28.06607 | -64.87306 | 39822 ft | 400 kts | 340° |
| 2026-05-06 13:08 | -28.01095 | -64.88327 | 39827 ft | 401 kts | 340° |
| 2026-05-06 13:08 | -27.95581 | -64.89347 | 39825 ft | 402 kts | 340° |
| 2026-05-06 13:09 | -27.90055 | -64.90368 | 39825 ft | 402 kts | 340° |
| 2026-05-06 13:09 | -27.84531 | -64.91388 | 39829 ft | 402 kts | 340° |
| 2026-05-06 13:10 | -27.79020 | -64.92404 | 39822 ft | 402 kts | 340° |
| 2026-05-06 13:10 | -27.73492 | -64.93425 | 39821 ft | 402 kts | 340° |
| 2026-05-06 13:11 | -27.67993 | -64.94531 | 39824 ft | 401 kts | 339° |
| 2026-05-06 13:11 | -27.62473 | -64.95611 | 39820 ft | 402 kts | 340° |
| 2026-05-06 13:12 | -27.56991 | -64.96692 | 39822 ft | 402 kts | 339° |
| 2026-05-06 13:12 | -27.51480 | -64.97776 | 39821 ft | 402 kts | 340° |
| 2026-05-06 13:13 | -27.45964 | -64.98859 | 39820 ft | 402 kts | 340° |
| 2026-05-06 13:13 | -27.40438 | -64.99944 | 39816 ft | 403 kts | 340° |
| 2026-05-06 13:14 | -27.34940 | -65.01021 | 39822 ft | 403 kts | 340° |
| 2026-05-06 13:14 | -27.29409 | -65.02104 | 39824 ft | 403 kts | 340° |
| 2026-05-06 13:15 | -27.23871 | -65.03188 | 39824 ft | 404 kts | 340° |
| 2026-05-06 13:15 | -27.18325 | -65.04271 | 39823 ft | 404 kts | 340° |
| 2026-05-06 13:16 | -27.12775 | -65.05355 | 39827 ft | 405 kts | 340° |
| 2026-05-06 13:16 | -27.07242 | -65.06434 | 39834 ft | 406 kts | 340° |
| 2026-05-06 13:17 | -27.01676 | -65.07519 | 39837 ft | 406 kts | 340° |
| 2026-05-06 13:17 | -26.96105 | -65.08603 | 39846 ft | 406 kts | 340° |
| 2026-05-06 13:18 | -26.90489 | -65.09695 | 39848 ft | 407 kts | 340° |
| 2026-05-06 13:18 | -26.85116 | -65.11189 | 39849 ft | 391 kts | 328° |
| 2026-05-06 13:19 | -26.80668 | -65.14415 | 39850 ft | 377 kts | 314° |
| 2026-05-06 13:19 | -26.76601 | -65.18140 | 39852 ft | 378 kts | 314° |
| 2026-05-06 13:20 | -26.72526 | -65.21860 | 39849 ft | 378 kts | 314° |
| 2026-05-06 13:20 | -26.68458 | -65.25577 | 39846 ft | 378 kts | 314° |
| 2026-05-06 13:21 | -26.64385 | -65.29291 | 39853 ft | 378 kts | 314° |
| 2026-05-06 13:21 | -26.60320 | -65.32996 | 39850 ft | 379 kts | 315° |
| 2026-05-06 13:22 | -26.56222 | -65.36727 | 39862 ft | 380 kts | 314° |
| 2026-05-06 13:22 | -26.52122 | -65.40455 | 39876 ft | 380 kts | 315° |
| 2026-05-06 13:23 | -26.48008 | -65.44194 | 39886 ft | 381 kts | 315° |
| 2026-05-06 13:23 | -26.43914 | -65.47912 | 39894 ft | 382 kts | 315° |
| 2026-05-06 13:24 | -26.39778 | -65.51662 | 39903 ft | 384 kts | 315° |
| 2026-05-06 13:24 | -26.35621 | -65.55429 | 39910 ft | 385 kts | 315° |
| 2026-05-06 13:25 | -26.31461 | -65.59195 | 39916 ft | 385 kts | 315° |
| 2026-05-06 13:25 | -26.27306 | -65.62950 | 39935 ft | 384 kts | 315° |
| 2026-05-06 13:26 | -26.23148 | -65.66710 | 39936 ft | 386 kts | 315° |
| 2026-05-06 13:26 | -26.18961 | -65.70489 | 39944 ft | 387 kts | 315° |
| 2026-05-06 13:27 | -26.14794 | -65.74246 | 39958 ft | 388 kts | 315° |
| 2026-05-06 13:27 | -26.10619 | -65.78051 | 39977 ft | 386 kts | 315° |
| 2026-05-06 13:28 | -26.06435 | -65.81823 | 39983 ft | 388 kts | 316° |
| 2026-05-06 13:28 | -26.02247 | -65.85572 | 39987 ft | 387 kts | 315° |
| 2026-05-06 13:29 | -25.98054 | -65.89340 | 39995 ft | 387 kts | 316° |
| 2026-05-06 13:29 | -25.94561 | -65.92464 | 39999 ft | 387 kts | 315° |
| 2026-05-06 13:30 | -25.90361 | -65.96229 | 39998 ft | 387 kts | 316° |
| 2026-05-06 13:30 | -25.86181 | -65.99965 | 40004 ft | 381 kts | 315° |
| 2026-05-06 13:30 | -25.84163 | -66.01762 | 40001 ft | 361 kts | 315° |
| 2026-05-06 13:31 | -25.82234 | -66.03465 | 39693 ft | 352 kts | 316° |
| 2026-05-06 13:31 | -25.80335 | -66.05144 | 39105 ft | 352 kts | 315° |
| 2026-05-06 13:31 | -25.78453 | -66.06873 | 38502 ft | 351 kts | 314° |
| 2026-05-06 13:31 | -25.76557 | -66.08584 | 37830 ft | 351 kts | 315° |
| 2026-05-06 13:32 | -25.74645 | -66.10270 | 37191 ft | 350 kts | 316° |
| 2026-05-06 13:32 | -25.72740 | -66.11957 | 36560 ft | 349 kts | 316° |
| 2026-05-06 13:32 | -25.70854 | -66.13645 | 35951 ft | 348 kts | 316° |
| 2026-05-06 13:32 | -25.68969 | -66.15329 | 35355 ft | 347 kts | 316° |
| 2026-05-06 13:33 | -25.67096 | -66.16995 | 34780 ft | 345 kts | 316° |
| 2026-05-06 13:33 | -25.65224 | -66.18659 | 34213 ft | 344 kts | 316° |
| 2026-05-06 13:33 | -25.63363 | -66.20315 | 33597 ft | 342 kts | 316° |
| 2026-05-06 13:33 | -25.61512 | -66.21963 | 32972 ft | 341 kts | 317° |
| 2026-05-06 13:34 | -25.59684 | -66.23587 | 32365 ft | 340 kts | 317° |
| 2026-05-06 13:34 | -25.57838 | -66.25227 | 31767 ft | 340 kts | 317° |
| 2026-05-06 13:34 | -25.55997 | -66.26863 | 31175 ft | 339 kts | 317° |
| 2026-05-06 13:34 | -25.54158 | -66.28495 | 30598 ft | 338 kts | 317° |
| 2026-05-06 13:35 | -25.52324 | -66.30124 | 30038 ft | 338 kts | 317° |
| 2026-05-06 13:35 | -25.50488 | -66.31753 | 29378 ft | 339 kts | 317° |
| 2026-05-06 13:35 | -25.48645 | -66.33387 | 28726 ft | 339 kts | 318° |
| 2026-05-06 13:35 | -25.46804 | -66.35018 | 28107 ft | 338 kts | 318° |
| 2026-05-06 13:36 | -25.44969 | -66.36645 | 27499 ft | 338 kts | 318° |
| 2026-05-06 13:36 | -25.43132 | -66.38271 | 26911 ft | 337 kts | 318° |
| 2026-05-06 13:36 | -25.41304 | -66.39888 | 26324 ft | 337 kts | 319° |
| 2026-05-06 13:36 | -25.39218 | -66.41107 | 25746 ft | 346 kts | 337° |
| 2026-05-06 13:37 | -25.36782 | -66.41397 | 25194 ft | 361 kts | 358° |
| 2026-05-06 13:37 | -25.34405 | -66.40630 | 25126 ft | 363 kts | 19° |
| 2026-05-06 13:37 | -25.32400 | -66.38937 | 25115 ft | 365 kts | 40° |
| 2026-05-06 13:37 | -25.31070 | -66.36556 | 25105 ft | 367 kts | 63° |
| 2026-05-06 13:38 | -25.30580 | -66.33790 | 25037 ft | 369 kts | 86° |
| 2026-05-06 13:38 | -25.30947 | -66.30975 | 24680 ft | 375 kts | 105° |
| 2026-05-06 13:38 | -25.31784 | -66.28215 | 24263 ft | 380 kts | 109° |
| 2026-05-06 13:38 | -25.32611 | -66.25426 | 23856 ft | 383 kts | 105° |
| 2026-05-06 13:39 | -25.33115 | -66.22538 | 23410 ft | 384 kts | 94° |
| 2026-05-06 13:39 | -25.33224 | -66.19590 | 22936 ft | 385 kts | 88° |
| 2026-05-06 13:39 | -25.33244 | -66.16624 | 22463 ft | 387 kts | 89° |
| 2026-05-06 13:39 | -25.33411 | -66.13683 | 22002 ft | 389 kts | 94° |
| 2026-05-06 13:40 | -25.33714 | -66.10670 | 21534 ft | 390 kts | 95° |
| 2026-05-06 13:40 | -25.33955 | -66.07720 | 21086 ft | 390 kts | 92° |
| 2026-05-06 13:40 | -25.34123 | -66.04722 | 20634 ft | 390 kts | 92° |
| 2026-05-06 13:40 | -25.34309 | -66.01728 | 20195 ft | 390 kts | 93° |
| 2026-05-06 13:41 | -25.34535 | -65.98742 | 19762 ft | 390 kts | 94° |
| 2026-05-06 13:41 | -25.34758 | -65.95751 | 19323 ft | 388 kts | 93° |
| 2026-05-06 13:41 | -25.34955 | -65.92785 | 18898 ft | 387 kts | 93° |
| 2026-05-06 13:41 | -25.35149 | -65.89829 | 18480 ft | 385 kts | 92° |
| 2026-05-06 13:42 | -25.35050 | -65.86878 | 18015 ft | 383 kts | 79° |
| 2026-05-06 13:42 | -25.34426 | -65.84039 | 17528 ft | 378 kts | 68° |
| 2026-05-06 13:42 | -25.33338 | -65.81431 | 17055 ft | 371 kts | 56° |
| 2026-05-06 13:42 | -25.31870 | -65.79167 | 16595 ft | 364 kts | 45° |
| 2026-05-06 13:43 | -25.30035 | -65.77233 | 16132 ft | 356 kts | 35° |
| 2026-05-06 13:43 | -25.28008 | -65.75761 | 15685 ft | 351 kts | 26° |
| 2026-05-06 13:43 | -25.25898 | -65.74422 | 15252 ft | 349 kts | 27° |
| 2026-05-06 13:43 | -25.23799 | -65.73070 | 14812 ft | 348 kts | 28° |
| 2026-05-06 13:44 | -25.21713 | -65.71722 | 14386 ft | 348 kts | 28° |
| 2026-05-06 13:44 | -25.20374 | -65.70862 | 14117 ft | 347 kts | 28° |
| 2026-05-06 13:44 | -25.18285 | -65.69522 | 13672 ft | 346 kts | 28° |
| 2026-05-06 13:44 | -25.16198 | -65.68192 | 13226 ft | 346 kts | 28° |
| 2026-05-06 13:45 | -25.14138 | -65.66873 | 13018 ft | 329 kts | 29° |
| 2026-05-06 13:45 | -25.10557 | -65.64568 | 12990 ft | 273 kts | 28° |
| 2026-05-06 13:45 | -25.08966 | -65.63553 | 12995 ft | 263 kts | 28° |
| 2026-05-06 13:46 | -25.07407 | -65.62563 | 12908 ft | 259 kts | 27° |
| 2026-05-06 13:46 | -25.05770 | -65.61552 | 12306 ft | 275 kts | 28° |
| 2026-05-06 13:46 | -25.04090 | -65.60446 | 11763 ft | 286 kts | 30° |
| 2026-05-06 13:46 | -25.02348 | -65.59307 | 11236 ft | 294 kts | 29° |
| 2026-05-06 13:47 | -25.00552 | -65.58171 | 10707 ft | 298 kts | 29° |
| 2026-05-06 13:47 | -24.98751 | -65.57030 | 10199 ft | 299 kts | 29° |
| 2026-05-06 13:47 | -24.96973 | -65.55889 | 10020 ft | 288 kts | 30° |
| 2026-05-06 13:47 | -24.95279 | -65.54804 | 10023 ft | 275 kts | 30° |
| 2026-05-06 13:48 | -24.93650 | -65.53764 | 10016 ft | 265 kts | 29° |
| 2026-05-06 13:48 | -24.92073 | -65.52760 | 10010 ft | 258 kts | 29° |
| 2026-05-06 13:48 | -24.90562 | -65.51795 | 10011 ft | 250 kts | 29° |
| 2026-05-06 13:48 | -24.89075 | -65.50846 | 10012 ft | 245 kts | 29° |
| 2026-05-06 13:49 | -24.87606 | -65.49910 | 10008 ft | 242 kts | 29° |
| 2026-05-06 13:49 | -24.86151 | -65.48978 | 10016 ft | 240 kts | 31° |
| 2026-05-06 13:49 | -24.84850 | -65.47790 | 9738 ft | 252 kts | 50° |
| 2026-05-06 13:49 | -24.83875 | -65.46115 | 9344 ft | 267 kts | 58° |
| 2026-05-06 13:50 | -24.82873 | -65.44350 | 8968 ft | 277 kts | 56° |
| 2026-05-06 13:50 | -24.81806 | -65.42558 | 8584 ft | 281 kts | 56° |
| 2026-05-06 13:50 | -24.80730 | -65.40749 | 8207 ft | 284 kts | 56° |
| 2026-05-06 13:50 | -24.79681 | -65.38952 | 8029 ft | 279 kts | 57° |
| 2026-05-06 13:51 | -24.78643 | -65.37175 | 8029 ft | 268 kts | 56° |
| 2026-05-06 13:51 | -24.77649 | -65.35494 | 8011 ft | 261 kts | 56° |
| 2026-05-06 13:51 | -24.76679 | -65.33841 | 8005 ft | 255 kts | 56° |
| 2026-05-06 13:51 | -24.75723 | -65.32214 | 7998 ft | 249 kts | 56° |
| 2026-05-06 13:52 | -24.74791 | -65.30634 | 7996 ft | 244 kts | 56° |
| 2026-05-06 13:52 | -24.73873 | -65.29076 | 7987 ft | 240 kts | 57° |
| 2026-05-06 13:52 | -24.72982 | -65.27525 | 7979 ft | 237 kts | 61° |
| 2026-05-06 13:52 | -24.72488 | -65.25825 | 7854 ft | 240 kts | 79° |
| 2026-05-06 13:53 | -24.72000 | -65.24047 | 7652 ft | 245 kts | 68° |
| 2026-05-06 13:53 | -24.71355 | -65.22293 | 7459 ft | 250 kts | 68° |
| 2026-05-06 13:53 | -24.70776 | -65.20480 | 7264 ft | 253 kts | 71° |
| 2026-05-06 13:53 | -24.70241 | -65.18620 | 7071 ft | 256 kts | 72° |
| 2026-05-06 13:54 | -24.69692 | -65.16768 | 6996 ft | 252 kts | 71° |
| 2026-05-06 13:54 | -24.69142 | -65.14964 | 6995 ft | 246 kts | 71° |
| 2026-05-06 13:54 | -24.68604 | -65.13194 | 6993 ft | 242 kts | 71° |
| 2026-05-06 13:54 | -24.68077 | -65.11450 | 6986 ft | 239 kts | 71° |
| 2026-05-06 13:55 | -24.67554 | -65.09722 | 6981 ft | 236 kts | 71° |
| 2026-05-06 13:55 | -24.67038 | -65.08017 | 6978 ft | 234 kts | 71° |
| 2026-05-06 13:55 | -24.66524 | -65.06322 | 6958 ft | 233 kts | 71° |
| 2026-05-06 13:55 | -24.65926 | -65.04687 | 6751 ft | 240 kts | 63° |
| 2026-05-06 13:56 | -24.65060 | -65.03043 | 6315 ft | 255 kts | 56° |
| 2026-05-06 13:56 | -24.64089 | -65.01366 | 5857 ft | 264 kts | 56° |
| 2026-05-06 13:56 | -24.62842 | -64.99902 | 5603 ft | 256 kts | 37° |
| 2026-05-06 13:56 | -24.61395 | -64.98961 | 5565 ft | 230 kts | 23° |
| 2026-05-06 13:57 | -24.59861 | -64.98485 | 5063 ft | 229 kts | 7° |
| 2026-05-06 13:57 | -24.58272 | -64.98467 | 4616 ft | 228 kts | 354° |
| 2026-05-06 13:57 | -24.56747 | -64.98893 | 4213 ft | 225 kts | 337° |
| 2026-05-06 13:57 | -24.55477 | -64.99738 | 4282 ft | 204 kts | 323° |
| 2026-05-06 13:58 | -24.54290 | -65.00446 | 4297 ft | 184 kts | 339° |
| 2026-05-06 13:58 | -24.53222 | -65.01029 | 4278 ft | 155 kts | 333° |
| 2026-05-06 13:58 | -24.52352 | -65.01551 | 4271 ft | 137 kts | 332° |
| 2026-05-06 13:58 | -24.51558 | -65.02050 | 4264 ft | 128 kts | 332° |
| 2026-05-06 13:59 | -24.50797 | -65.02527 | 4272 ft | 125 kts | 332° |
| 2026-05-06 13:59 | -24.50028 | -65.03009 | 4283 ft | 129 kts | 331° |
| 2026-05-06 13:59 | -24.49248 | -65.03505 | 4286 ft | 130 kts | 331° |
| 2026-05-06 13:59 | -24.48457 | -65.04005 | 4293 ft | 133 kts | 331° |
| 2026-05-06 14:00 | -24.47661 | -65.04510 | 4289 ft | 130 kts | 331° |
| 2026-05-06 14:00 | -24.46882 | -65.04995 | 4296 ft | 128 kts | 331° |
| 2026-05-06 14:00 | -24.46107 | -65.05483 | 4231 ft | 130 kts | 331° |
| 2026-05-06 14:00 | -24.45315 | -65.05982 | 4069 ft | 133 kts | 331° |
| 2026-05-06 14:01 | -24.44498 | -65.06495 | 3884 ft | 137 kts | 331° |
| 2026-05-06 14:01 | -24.43668 | -65.07016 | 3695 ft | 138 kts | 329° |
| 2026-05-06 14:01 | -24.42835 | -65.07526 | 3500 ft | 136 kts | 331° |
| 2026-05-06 14:01 | -24.42034 | -65.08034 | 3377 ft | 133 kts | 330° |
| 2026-05-06 14:02 | -24.41235 | -65.08532 | 3158 ft | 131 kts | 330° |
| 2026-05-06 14:02 | -24.40447 | -65.09034 | 3011 ft | 128 kts | 331° |
| 2026-05-06 14:02 | -24.39782 | -65.09450 | 2993 ft | 82 kts | 329° |
| 2026-05-06 14:02 | -24.39380 | -65.09706 | 2993 ft | 58 kts | 331° |
| 2026-05-06 14:03 | -24.39175 | -65.09834 | 2993 ft | 19 kts | 338° |
| 2026-05-06 14:03 | -24.39058 | -65.09863 | 2994 ft | 10 kts | 7° |
| 2026-05-06 14:03 | -24.39002 | -65.09854 | 2993 ft | 0 kts | 358° |
| 2026-05-06 14:03 | -24.38970 | -65.09854 | 2993 ft | 12 kts | 7° |
| 2026-05-06 14:04 | -24.38913 | -65.09776 | 2992 ft | 14 kts | 65° |
| 2026-05-06 14:04 | -24.38851 | -65.09684 | 2992 ft | 17 kts | 62° |
| 2026-05-06 14:04 | -24.38787 | -65.09561 | 2992 ft | 20 kts | 58° |
| 2026-05-06 14:04 | -24.38746 | -65.09483 | 2992 ft | 7 kts | 54° |
| 2026-05-06 14:05 | -24.38737 | -65.09475 | 2992 ft | 0 kts | 31° |
| 2026-05-06 14:05 | -24.38714 | -65.09470 | 2992 ft | 4 kts | 39° |
| 2026-05-06 14:06 | -24.38719 | -65.09441 | 2992 ft | 3 kts | 147° |
| 2026-05-06 14:06 | -24.38722 | -65.09433 | 2992 ft | 0 kts | 67° |
| 2026-05-06 14:06 | -24.38710 | -65.09434 | 2992 ft | 3 kts | 323° |
| 2026-05-06 14:07 | -24.38709 | -65.09434 | 2992 ft | 0 kts | 323° |